Aviation Digital Data Service (ADDS)

Output produced by METARs form (0737 UTC 20 March 2019)
found at http://www.aviationweather.gov/metar/data/
 
METAR text: EHAM 200725Z 22008KT 6000 FEW007 BKN024 09/08 Q1031 TEMPO BKN006
Conditions at: EHAM (AMSTERDAM/SCHIPH, NL) observed 0725 UTC 20 March 2019
Temperature: 9.0°C (48°F)
Dewpoint: 8.0°C (46°F) [RH = 93%]
Pressure (altimeter): 30.44 inches Hg (1031.0 mb)
Winds: from the SW (220 degrees) at 9 MPH (8 knots; 4.1 m/s)
Visibility: 4 miles ( 6 km)
Ceiling: 2400 feet AGL
Clouds: few clouds at 700 feet AGL
broken clouds at 2400 feet AGL
Weather: no significant weather observed at this time

METAR text: EHAM 200655Z 21009KT 7000 FEW007 BKN024 09/08 Q1031 BECMG BKN006
Conditions at: EHAM (AMSTERDAM/SCHIPH, NL) observed 0655 UTC 20 March 2019
Temperature: 9.0°C (48°F)
Dewpoint: 8.0°C (46°F) [RH = 93%]
Pressure (altimeter): 30.44 inches Hg (1031.0 mb)
Winds: from the SSW (210 degrees) at 10 MPH (9 knots; 4.6 m/s)
Visibility: 4 miles ( 7 km)
Ceiling: 2400 feet AGL
Clouds: few clouds at 700 feet AGL
broken clouds at 2400 feet AGL
Weather: no significant weather observed at this time

METAR text: EHAM 200625Z 22007KT 7000 FEW007 SCT026 09/08 Q1030 BECMG BKN006
Conditions at: EHAM (AMSTERDAM/SCHIPH, NL) observed 0625 UTC 20 March 2019
Temperature: 9.0°C (48°F)
Dewpoint: 8.0°C (46°F) [RH = 93%]
Pressure (altimeter): 30.41 inches Hg (1030.0 mb)
Winds: from the SW (220 degrees) at 8 MPH (7 knots; 3.6 m/s)
Visibility: 4 miles ( 7 km)
Ceiling: at least 12,000 feet AGL
Clouds: few clouds at 700 feet AGL
scattered clouds at 2600 feet AGL
Weather: no significant weather observed at this time

METAR text: EHAM 200555Z 22008KT 8000 SCT007 BKN028 08/08 Q1030 BECMG 6000 BKN006
Conditions at: EHAM (AMSTERDAM/SCHIPH, NL) observed 0555 UTC 20 March 2019
Temperature: 8.0°C (46°F)
Dewpoint: 8.0°C (46°F) [RH = 100%]
Pressure (altimeter): 30.41 inches Hg (1030.0 mb)
Winds: from the SW (220 degrees) at 9 MPH (8 knots; 4.1 m/s)
Visibility: 5 miles ( 8 km)
Ceiling: 2800 feet AGL
Clouds: scattered clouds at 700 feet AGL
broken clouds at 2800 feet AGL
Weather: no significant weather observed at this time

METAR text: EHAM 200525Z 22007KT 8000 SCT007 BKN028 08/07 Q1030 BECMG 6000 BKN006
Conditions at: EHAM (AMSTERDAM/SCHIPH, NL) observed 0525 UTC 20 March 2019
Temperature: 8.0°C (46°F)
Dewpoint: 7.0°C (45°F) [RH = 93%]
Pressure (altimeter): 30.41 inches Hg (1030.0 mb)
Winds: from the SW (220 degrees) at 8 MPH (7 knots; 3.6 m/s)
Visibility: 5 miles ( 8 km)
Ceiling: 2800 feet AGL
Clouds: scattered clouds at 700 feet AGL
broken clouds at 2800 feet AGL
Weather: no significant weather observed at this time

METAR text: EHAM 200455Z 22007KT 9000 BKN007 BKN031 08/07 Q1030 BECMG 7000
Conditions at: EHAM (AMSTERDAM/SCHIPH, NL) observed 0455 UTC 20 March 2019
Temperature: 8.0°C (46°F)
Dewpoint: 7.0°C (45°F) [RH = 93%]
Pressure (altimeter): 30.41 inches Hg (1030.0 mb)
Winds: from the SW (220 degrees) at 8 MPH (7 knots; 3.6 m/s)
Visibility: 6 miles ( 9 km)
Ceiling: 700 feet AGL
Clouds: broken clouds at 700 feet AGL
broken clouds at 3100 feet AGL
Weather: no significant weather observed at this time

METAR text: EHAM 200425Z 22008KT 9000 FEW008 BKN029 08/07 Q1030 BECMG 7000 BKN007
Conditions at: EHAM (AMSTERDAM/SCHIPH, NL) observed 0425 UTC 20 March 2019
Temperature: 8.0°C (46°F)
Dewpoint: 7.0°C (45°F) [RH = 93%]
Pressure (altimeter): 30.41 inches Hg (1030.0 mb)
Winds: from the SW (220 degrees) at 9 MPH (8 knots; 4.1 m/s)
Visibility: 6 miles ( 9 km)
Ceiling: 2900 feet AGL
Clouds: few clouds at 800 feet AGL
broken clouds at 2900 feet AGL
Weather: no significant weather observed at this time

METAR text: EHAM 200355Z 22007KT 7000 FEW027 08/07 Q1030 BECMG 7000 BKN007
Conditions at: EHAM (AMSTERDAM/SCHIPH, NL) observed 0355 UTC 20 March 2019
Temperature: 8.0°C (46°F)
Dewpoint: 7.0°C (45°F) [RH = 93%]
Pressure (altimeter): 30.41 inches Hg (1030.0 mb)
Winds: from the SW (220 degrees) at 8 MPH (7 knots; 3.6 m/s)
Visibility: 4 miles ( 7 km)
Ceiling: at least 12,000 feet AGL
Clouds: few clouds at 2700 feet AGL
Weather: no significant weather observed at this time

METAR text: EHAM 200325Z 21007KT CAVOK 08/07 Q1030 NOSIG
Conditions at: EHAM (AMSTERDAM/SCHIPH, NL) observed 0325 UTC 20 March 2019
Temperature: 8.0°C (46°F)
Dewpoint: 7.0°C (45°F) [RH = 93%]
Pressure (altimeter): 30.41 inches Hg (1030.0 mb)
Winds: from the SSW (210 degrees) at 8 MPH (7 knots; 3.6 m/s)
Visibility: 6 or more miles (10+ km)
Ceiling: ceiling and visibility are OK
Clouds: unknown
Weather: no significant weather observed at this time

METAR text: EHAM 200255Z 21008KT 9999 FEW030 08/07 Q1030 NOSIG
Conditions at: EHAM (AMSTERDAM/SCHIPH, NL) observed 0255 UTC 20 March 2019
Temperature: 8.0°C (46°F)
Dewpoint: 7.0°C (45°F) [RH = 93%]
Pressure (altimeter): 30.41 inches Hg (1030.0 mb)
Winds: from the SSW (210 degrees) at 9 MPH (8 knots; 4.1 m/s)
Visibility: 6 or more miles (10+ km)
Ceiling: at least 12,000 feet AGL
Clouds: few clouds at 3000 feet AGL
Weather: no significant weather observed at this time

METAR text: EHAM 200225Z 21009KT 9999 FEW030 08/06 Q1030 NOSIG
Conditions at: EHAM (AMSTERDAM/SCHIPH, NL) observed 0225 UTC 20 March 2019
Temperature: 8.0°C (46°F)
Dewpoint: 6.0°C (43°F) [RH = 87%]
Pressure (altimeter): 30.41 inches Hg (1030.0 mb)
Winds: from the SSW (210 degrees) at 10 MPH (9 knots; 4.6 m/s)
Visibility: 6 or more miles (10+ km)
Ceiling: at least 12,000 feet AGL
Clouds: few clouds at 3000 feet AGL
Weather: no significant weather observed at this time

METAR text: EHAM 200155Z 21009KT 9999 FEW030 08/06 Q1030 NOSIG
Conditions at: EHAM (AMSTERDAM/SCHIPH, NL) observed 0155 UTC 20 March 2019
Temperature: 8.0°C (46°F)
Dewpoint: 6.0°C (43°F) [RH = 87%]
Pressure (altimeter): 30.41 inches Hg (1030.0 mb)
Winds: from the SSW (210 degrees) at 10 MPH (9 knots; 4.6 m/s)
Visibility: 6 or more miles (10+ km)
Ceiling: at least 12,000 feet AGL
Clouds: few clouds at 3000 feet AGL
Weather: no significant weather observed at this time

METAR text: EHAM 200055Z 19007KT CAVOK 08/06 Q1030 NOSIG
Conditions at: EHAM (AMSTERDAM/SCHIPH, NL) observed 0055 UTC 20 March 2019
Temperature: 8.0°C (46°F)
Dewpoint: 6.0°C (43°F) [RH = 87%]
Pressure (altimeter): 30.41 inches Hg (1030.0 mb)
Winds: from the S (190 degrees) at 8 MPH (7 knots; 3.6 m/s)
Visibility: 6 or more miles (10+ km)
Ceiling: ceiling and visibility are OK
Clouds: unknown
Weather: no significant weather observed at this time

METAR text: EHAM 200025Z 17005KT CAVOK 07/05 Q1030 NOSIG
Conditions at: EHAM (AMSTERDAM/SCHIPH, NL) observed 0025 UTC 20 March 2019
Temperature: 7.0°C (45°F)
Dewpoint: 5.0°C (41°F) [RH = 87%]
Pressure (altimeter): 30.41 inches Hg (1030.0 mb)
Winds: from the S (170 degrees) at 6 MPH (5 knots; 2.6 m/s)
Visibility: 6 or more miles (10+ km)
Ceiling: ceiling and visibility are OK
Clouds: unknown
Weather: no significant weather observed at this time

METAR text: EHAM 192355Z 19004KT CAVOK 07/05 Q1030 NOSIG
Conditions at: EHAM (AMSTERDAM/SCHIPH, NL) observed 2355 UTC 19 March 2019
Temperature: 7.0°C (45°F)
Dewpoint: 5.0°C (41°F) [RH = 87%]
Pressure (altimeter): 30.41 inches Hg (1030.0 mb)
Winds: from the S (190 degrees) at 5 MPH (4 knots; 2.1 m/s)
Visibility: 6 or more miles (10+ km)
Ceiling: ceiling and visibility are OK
Clouds: unknown
Weather: no significant weather observed at this time

METAR text: EHAM 192325Z 19005KT CAVOK 07/05 Q1030 NOSIG
Conditions at: EHAM (AMSTERDAM/SCHIPH, NL) observed 2325 UTC 19 March 2019
Temperature: 7.0°C (45°F)
Dewpoint: 5.0°C (41°F) [RH = 87%]
Pressure (altimeter): 30.41 inches Hg (1030.0 mb)
Winds: from the S (190 degrees) at 6 MPH (5 knots; 2.6 m/s)
Visibility: 6 or more miles (10+ km)
Ceiling: ceiling and visibility are OK
Clouds: unknown
Weather: no significant weather observed at this time

METAR text: EHAM 192255Z 18006KT 140V200 CAVOK 06/05 Q1030 NOSIG
Conditions at: EHAM (AMSTERDAM/SCHIPH, NL) observed 2255 UTC 19 March 2019
Temperature: 6.0°C (43°F)
Dewpoint: 5.0°C (41°F) [RH = 93%]
Pressure (altimeter): 30.41 inches Hg (1030.0 mb)
Winds: from the S (180 degrees) at 7 MPH (6 knots; 3.1 m/s)
Visibility: 6 or more miles (10+ km)
Ceiling: ceiling and visibility are OK
Clouds: unknown
Weather: no significant weather observed at this time

METAR text: EHAM 192225Z 19007KT 9999 FEW026 05/03 Q1030 NOSIG
Conditions at: EHAM (AMSTERDAM/SCHIPH, NL) observed 2225 UTC 19 March 2019
Temperature: 5.0°C (41°F)
Dewpoint: 3.0°C (37°F) [RH = 87%]
Pressure (altimeter): 30.41 inches Hg (1030.0 mb)
Winds: from the S (190 degrees) at 8 MPH (7 knots; 3.6 m/s)
Visibility: 6 or more miles (10+ km)
Ceiling: at least 12,000 feet AGL
Clouds: few clouds at 2600 feet AGL
Weather: no significant weather observed at this time

METAR text: EHAM 192155Z 20007KT 9999 FEW026 SCT031 06/04 Q1030 NOSIG
Conditions at: EHAM (AMSTERDAM/SCHIPH, NL) observed 2155 UTC 19 March 2019
Temperature: 6.0°C (43°F)
Dewpoint: 4.0°C (39°F) [RH = 87%]
Pressure (altimeter): 30.41 inches Hg (1030.0 mb)
Winds: from the SSW (200 degrees) at 8 MPH (7 knots; 3.6 m/s)
Visibility: 6 or more miles (10+ km)
Ceiling: at least 12,000 feet AGL
Clouds: few clouds at 2600 feet AGL
scattered clouds at 3100 feet AGL
Weather: no significant weather observed at this time

METAR text: EHAM 192125Z 22007KT 9999 BKN033 08/05 Q1030 NOSIG
Conditions at: EHAM (AMSTERDAM/SCHIPH, NL) observed 2125 UTC 19 March 2019
Temperature: 8.0°C (46°F)
Dewpoint: 5.0°C (41°F) [RH = 81%]
Pressure (altimeter): 30.41 inches Hg (1030.0 mb)
Winds: from the SW (220 degrees) at 8 MPH (7 knots; 3.6 m/s)
Visibility: 6 or more miles (10+ km)
Ceiling: 3300 feet AGL
Clouds: broken clouds at 3300 feet AGL
Weather: no significant weather observed at this time

METAR text: EHAM 192055Z 20007KT 9999 BKN041 06/04 Q1029 NOSIG
Conditions at: EHAM (AMSTERDAM/SCHIPH, NL) observed 2055 UTC 19 March 2019
Temperature: 6.0°C (43°F)
Dewpoint: 4.0°C (39°F) [RH = 87%]
Pressure (altimeter): 30.38 inches Hg (1029.0 mb)
Winds: from the SSW (200 degrees) at 8 MPH (7 knots; 3.6 m/s)
Visibility: 6 or more miles (10+ km)
Ceiling: 4100 feet AGL
Clouds: broken clouds at 4100 feet AGL
Weather: no significant weather observed at this time

METAR text: EHAM 192025Z 18006KT CAVOK 05/03 Q1029 NOSIG
Conditions at: EHAM (AMSTERDAM/SCHIPH, NL) observed 2025 UTC 19 March 2019
Temperature: 5.0°C (41°F)
Dewpoint: 3.0°C (37°F) [RH = 87%]
Pressure (altimeter): 30.38 inches Hg (1029.0 mb)
Winds: from the S (180 degrees) at 7 MPH (6 knots; 3.1 m/s)
Visibility: 6 or more miles (10+ km)
Ceiling: ceiling and visibility are OK
Clouds: unknown
Weather: no significant weather observed at this time

METAR text: EHAM 191955Z 22004KT 190V260 CAVOK 06/04 Q1029 NOSIG
Conditions at: EHAM (AMSTERDAM/SCHIPH, NL) observed 1955 UTC 19 March 2019
Temperature: 6.0°C (43°F)
Dewpoint: 4.0°C (39°F) [RH = 87%]
Pressure (altimeter): 30.38 inches Hg (1029.0 mb)
Winds: from the SW (220 degrees) at 5 MPH (4 knots; 2.1 m/s)
Visibility: 6 or more miles (10+ km)
Ceiling: ceiling and visibility are OK
Clouds: unknown
Weather: no significant weather observed at this time

METAR text: EHAM 191925Z 23005KT CAVOK 07/05 Q1029 NOSIG
Conditions at: EHAM (AMSTERDAM/SCHIPH, NL) observed 1925 UTC 19 March 2019
Temperature: 7.0°C (45°F)
Dewpoint: 5.0°C (41°F) [RH = 87%]
Pressure (altimeter): 30.38 inches Hg (1029.0 mb)
Winds: from the SW (230 degrees) at 6 MPH (5 knots; 2.6 m/s)
Visibility: 6 or more miles (10+ km)
Ceiling: ceiling and visibility are OK
Clouds: unknown
Weather: no significant weather observed at this time

METAR text: EHAM 191855Z 24006KT CAVOK 08/05 Q1029 NOSIG
Conditions at: EHAM (AMSTERDAM/SCHIPH, NL) observed 1855 UTC 19 March 2019
Temperature: 8.0°C (46°F)
Dewpoint: 5.0°C (41°F) [RH = 81%]
Pressure (altimeter): 30.38 inches Hg (1029.0 mb)
Winds: from the WSW (240 degrees) at 7 MPH (6 knots; 3.1 m/s)
Visibility: 6 or more miles (10+ km)
Ceiling: ceiling and visibility are OK
Clouds: unknown
Weather: no significant weather observed at this time

METAR text: EHAM 191825Z 26006KT CAVOK 08/05 Q1029 NOSIG
Conditions at: EHAM (AMSTERDAM/SCHIPH, NL) observed 1825 UTC 19 March 2019
Temperature: 8.0°C (46°F)
Dewpoint: 5.0°C (41°F) [RH = 81%]
Pressure (altimeter): 30.38 inches Hg (1029.0 mb)
Winds: from the W (260 degrees) at 7 MPH (6 knots; 3.1 m/s)
Visibility: 6 or more miles (10+ km)
Ceiling: ceiling and visibility are OK
Clouds: unknown
Weather: no significant weather observed at this time

METAR text: EHAM 191755Z 26006KT CAVOK 09/05 Q1028 NOSIG
Conditions at: EHAM (AMSTERDAM/SCHIPH, NL) observed 1755 UTC 19 March 2019
Temperature: 9.0°C (48°F)
Dewpoint: 5.0°C (41°F) [RH = 76%]
Pressure (altimeter): 30.35 inches Hg (1028.0 mb)
Winds: from the W (260 degrees) at 7 MPH (6 knots; 3.1 m/s)
Visibility: 6 or more miles (10+ km)
Ceiling: ceiling and visibility are OK
Clouds: unknown
Weather: no significant weather observed at this time

METAR text: EHAM 191725Z 26007KT 9999 FEW030 09/04 Q1028 NOSIG
Conditions at: EHAM (AMSTERDAM/SCHIPH, NL) observed 1725 UTC 19 March 2019
Temperature: 9.0°C (48°F)
Dewpoint: 4.0°C (39°F) [RH = 71%]
Pressure (altimeter): 30.35 inches Hg (1028.0 mb)
Winds: from the W (260 degrees) at 8 MPH (7 knots; 3.6 m/s)
Visibility: 6 or more miles (10+ km)
Ceiling: at least 12,000 feet AGL
Clouds: few clouds at 3000 feet AGL
Weather: no significant weather observed at this time

METAR text: EHAM 191655Z 26007KT 220V290 9999 FEW030 10/04 Q1028 NOSIG
Conditions at: EHAM (AMSTERDAM/SCHIPH, NL) observed 1655 UTC 19 March 2019
Temperature: 10.0°C (50°F)
Dewpoint: 4.0°C (39°F) [RH = 66%]
Pressure (altimeter): 30.35 inches Hg (1028.0 mb)
Winds: from the W (260 degrees) at 8 MPH (7 knots; 3.6 m/s)
Visibility: 6 or more miles (10+ km)
Ceiling: at least 12,000 feet AGL
Clouds: few clouds at 3000 feet AGL
Weather: no significant weather observed at this time

METAR text: EHAM 191625Z 26008KT 240V300 9999 FEW030 11/04 Q1028 NOSIG
Conditions at: EHAM (AMSTERDAM/SCHIPH, NL) observed 1625 UTC 19 March 2019
Temperature: 11.0°C (52°F)
Dewpoint: 4.0°C (39°F) [RH = 62%]
Pressure (altimeter): 30.35 inches Hg (1028.0 mb)
Winds: from the W (260 degrees) at 9 MPH (8 knots; 4.1 m/s)
Visibility: 6 or more miles (10+ km)
Ceiling: at least 12,000 feet AGL
Clouds: few clouds at 3000 feet AGL
Weather: no significant weather observed at this time

METAR text: EHAM 191555Z 27009KT 230V290 9999 FEW032 11/04 Q1028 NOSIG
Conditions at: EHAM (AMSTERDAM/SCHIPH, NL) observed 1555 UTC 19 March 2019
Temperature: 11.0°C (52°F)
Dewpoint: 4.0°C (39°F) [RH = 62%]
Pressure (altimeter): 30.35 inches Hg (1028.0 mb)
Winds: from the W (270 degrees) at 10 MPH (9 knots; 4.6 m/s)
Visibility: 6 or more miles (10+ km)
Ceiling: at least 12,000 feet AGL
Clouds: few clouds at 3200 feet AGL
Weather: no significant weather observed at this time

METAR text: EHAM 191525Z 26009KT 230V300 9999 FEW035 11/04 Q1028 NOSIG
Conditions at: EHAM (AMSTERDAM/SCHIPH, NL) observed 1525 UTC 19 March 2019
Temperature: 11.0°C (52°F)
Dewpoint: 4.0°C (39°F) [RH = 62%]
Pressure (altimeter): 30.35 inches Hg (1028.0 mb)
Winds: from the W (260 degrees) at 10 MPH (9 knots; 4.6 m/s)
Visibility: 6 or more miles (10+ km)
Ceiling: at least 12,000 feet AGL
Clouds: few clouds at 3500 feet AGL
Weather: no significant weather observed at this time

METAR text: EHAM 191455Z 26010KT 230V300 9999 FEW035 11/03 Q1028 NOSIG
Conditions at: EHAM (AMSTERDAM/SCHIPH, NL) observed 1455 UTC 19 March 2019
Temperature: 11.0°C (52°F)
Dewpoint: 3.0°C (37°F) [RH = 58%]
Pressure (altimeter): 30.35 inches Hg (1028.0 mb)
Winds: from the W (260 degrees) at 12 MPH (10 knots; 5.1 m/s)
Visibility: 6 or more miles (10+ km)
Ceiling: at least 12,000 feet AGL
Clouds: few clouds at 3500 feet AGL
Weather: no significant weather observed at this time

METAR text: EHAM 191425Z 26011KT 220V300 9999 FEW035 12/04 Q1028 NOSIG
Conditions at: EHAM (AMSTERDAM/SCHIPH, NL) observed 1425 UTC 19 March 2019
Temperature: 12.0°C (54°F)
Dewpoint: 4.0°C (39°F) [RH = 58%]
Pressure (altimeter): 30.35 inches Hg (1028.0 mb)
Winds: from the W (260 degrees) at 13 MPH (11 knots; 5.7 m/s)
Visibility: 6 or more miles (10+ km)
Ceiling: at least 12,000 feet AGL
Clouds: few clouds at 3500 feet AGL
Weather: no significant weather observed at this time

METAR text: EHAM 191355Z 25011KT 220V280 9999 FEW032 12/04 Q1028 NOSIG
Conditions at: EHAM (AMSTERDAM/SCHIPH, NL) observed 1355 UTC 19 March 2019
Temperature: 12.0°C (54°F)
Dewpoint: 4.0°C (39°F) [RH = 58%]
Pressure (altimeter): 30.35 inches Hg (1028.0 mb)
Winds: from the WSW (250 degrees) at 13 MPH (11 knots; 5.7 m/s)
Visibility: 6 or more miles (10+ km)
Ceiling: at least 12,000 feet AGL
Clouds: few clouds at 3200 feet AGL
Weather: no significant weather observed at this time

METAR text: EHAM 191325Z 25010KT 210V290 9999 FEW030 12/04 Q1028 NOSIG
Conditions at: EHAM (AMSTERDAM/SCHIPH, NL) observed 1325 UTC 19 March 2019
Temperature: 12.0°C (54°F)
Dewpoint: 4.0°C (39°F) [RH = 58%]
Pressure (altimeter): 30.35 inches Hg (1028.0 mb)
Winds: from the WSW (250 degrees) at 12 MPH (10 knots; 5.1 m/s)
Visibility: 6 or more miles (10+ km)
Ceiling: at least 12,000 feet AGL
Clouds: few clouds at 3000 feet AGL
Weather: no significant weather observed at this time

METAR text: EHAM 191255Z 27009KT 240V310 9999 FEW019TCU 12/05 Q1028 NOSIG
Conditions at: EHAM (AMSTERDAM/SCHIPH, NL) observed 1255 UTC 19 March 2019
Temperature: 12.0°C (54°F)
Dewpoint: 5.0°C (41°F) [RH = 62%]
Pressure (altimeter): 30.35 inches Hg (1028.0 mb)
Winds: from the W (270 degrees) at 10 MPH (9 knots; 4.6 m/s)
Visibility: 6 or more miles (10+ km)
Ceiling: at least 12,000 feet AGL
Clouds: few clouds at 1900 feet AGL
Weather: no significant weather observed at this time

METAR text: EHAM 191225Z 25009KT 200V280 9999 FEW019TCU 11/05 Q1028 NOSIG
Conditions at: EHAM (AMSTERDAM/SCHIPH, NL) observed 1225 UTC 19 March 2019
Temperature: 11.0°C (52°F)
Dewpoint: 5.0°C (41°F) [RH = 66%]
Pressure (altimeter): 30.35 inches Hg (1028.0 mb)
Winds: from the WSW (250 degrees) at 10 MPH (9 knots; 4.6 m/s)
Visibility: 6 or more miles (10+ km)
Ceiling: at least 12,000 feet AGL
Clouds: few clouds at 1900 feet AGL
Weather: no significant weather observed at this time

METAR text: EHAM 191155Z 23005KT 150V280 9999 FEW017 10/06 Q1028 NOSIG
Conditions at: EHAM (AMSTERDAM/SCHIPH, NL) observed 1155 UTC 19 March 2019
Temperature: 10.0°C (50°F)
Dewpoint: 6.0°C (43°F) [RH = 76%]
Pressure (altimeter): 30.35 inches Hg (1028.0 mb)
Winds: from the SW (230 degrees) at 6 MPH (5 knots; 2.6 m/s)
Visibility: 6 or more miles (10+ km)
Ceiling: at least 12,000 feet AGL
Clouds: few clouds at 1700 feet AGL
Weather: no significant weather observed at this time

METAR text: EHAM 191125Z 22006KT 190V280 9999 FEW013 10/06 Q1028 NOSIG
Conditions at: EHAM (AMSTERDAM/SCHIPH, NL) observed 1125 UTC 19 March 2019
Temperature: 10.0°C (50°F)
Dewpoint: 6.0°C (43°F) [RH = 76%]
Pressure (altimeter): 30.35 inches Hg (1028.0 mb)
Winds: from the SW (220 degrees) at 7 MPH (6 knots; 3.1 m/s)
Visibility: 6 or more miles (10+ km)
Ceiling: at least 12,000 feet AGL
Clouds: few clouds at 1300 feet AGL
Weather: no significant weather observed at this time

METAR text: EHAM 191055Z 15005KT 110V190 8000 FEW007 09/07 Q1028 NOSIG
Conditions at: EHAM (AMSTERDAM/SCHIPH, NL) observed 1055 UTC 19 March 2019
Temperature: 9.0°C (48°F)
Dewpoint: 7.0°C (45°F) [RH = 87%]
Pressure (altimeter): 30.35 inches Hg (1028.0 mb)
Winds: from the SSE (150 degrees) at 6 MPH (5 knots; 2.6 m/s)
Visibility: 5 miles ( 8 km)
Ceiling: at least 12,000 feet AGL
Clouds: few clouds at 700 feet AGL
Weather: no significant weather observed at this time

METAR text: EHAM 191025Z 16005KT 120V200 7000 FEW007 08/06 Q1028 BECMG 8000
Conditions at: EHAM (AMSTERDAM/SCHIPH, NL) observed 1025 UTC 19 March 2019
Temperature: 8.0°C (46°F)
Dewpoint: 6.0°C (43°F) [RH = 87%]
Pressure (altimeter): 30.35 inches Hg (1028.0 mb)
Winds: from the SSE (160 degrees) at 6 MPH (5 knots; 2.6 m/s)
Visibility: 4 miles ( 7 km)
Ceiling: at least 12,000 feet AGL
Clouds: few clouds at 700 feet AGL
Weather: no significant weather observed at this time

METAR text: EHAM 190955Z 15006KT 4500 BR FEW004 SCT006 07/06 Q1028 BECMG 8000 NSW
Conditions at: EHAM (AMSTERDAM/SCHIPH, NL) observed 0955 UTC 19 March 2019
Temperature: 7.0°C (45°F)
Dewpoint: 6.0°C (43°F) [RH = 93%]
Pressure (altimeter): 30.35 inches Hg (1028.0 mb)
Winds: from the SSE (150 degrees) at 7 MPH (6 knots; 3.1 m/s)
Visibility: 2.80 miles (4.51 km)
Ceiling: at least 12,000 feet AGL
Clouds: few clouds at 400 feet AGL
scattered clouds at 600 feet AGL
Weather: BR  (mist)

METAR text: EHAM 190925Z 17004KT 140V210 4000 BR SCT002 BKN003 05/05 Q1028 BECMG 5000 SCT005
Conditions at: EHAM (AMSTERDAM/SCHIPH, NL) observed 0925 UTC 19 March 2019
Temperature: 5.0°C (41°F)
Dewpoint: 5.0°C (41°F) [RH = 100%]
Pressure (altimeter): 30.35 inches Hg (1028.0 mb)
Winds: from the S (170 degrees) at 5 MPH (4 knots; 2.1 m/s)
Visibility: 2.49 miles (4.01 km)
Ceiling: 300 feet AGL
Clouds: scattered clouds at 200 feet AGL
broken clouds at 300 feet AGL
Weather: BR  (mist)

METAR text: EHAM 190855Z 18006KT 2000 0500NW R18C/1200U R27/1700D R18R/P2000N R06/P2000N PRFG BR FEW001 BKN002 05/05 Q1027 TEMPO 1000 BECMG FM0925 5000 SCT005
Conditions at: EHAM (AMSTERDAM/SCHIPH, NL) observed 0855 UTC 19 March 2019
Temperature: 5.0°C (41°F)
Dewpoint: 5.0°C (41°F) [RH = 100%]
Pressure (altimeter): 30.32 inches Hg (1027.0 mb)
Winds: from the S (180 degrees) at 7 MPH (6 knots; 3.1 m/s)
Visibility: 1.24 miles (2.00 km)
Ceiling: 200 feet AGL
Clouds: few clouds at 100 feet AGL
broken clouds at 200 feet AGL
Weather: PRFG BR  (partial fog, mist)

METAR text: EHAM 190825Z 15005KT 5000 1500 BR FEW001 SCT002 04/02 Q1027 TEMPO 0800 PRFG BKN002
Conditions at: EHAM (AMSTERDAM/SCHIPH, NL) observed 0825 UTC 19 March 2019
Temperature: 4.0°C (39°F)
Dewpoint: 2.0°C (36°F) [RH = 87%]
Pressure (altimeter): 30.32 inches Hg (1027.0 mb)
Winds: from the SSE (150 degrees) at 6 MPH (5 knots; 2.6 m/s)
Visibility: 3 miles ( 5 km)
Ceiling: at least 12,000 feet AGL
Clouds: few clouds at 100 feet AGL
scattered clouds at 200 feet AGL
Weather: BR  (mist)

METAR text: EHAM 190755Z 16004KT 9999 FEW002 03/02 Q1027 TEMPO SCT003
Conditions at: EHAM (AMSTERDAM/SCHIPH, NL) observed 0755 UTC 19 March 2019
Temperature: 3.0°C (37°F)
Dewpoint: 2.0°C (36°F) [RH = 93%]
Pressure (altimeter): 30.32 inches Hg (1027.0 mb)
Winds: from the SSE (160 degrees) at 5 MPH (4 knots; 2.1 m/s)
Visibility: 6 or more miles (10+ km)
Ceiling: at least 12,000 feet AGL
Clouds: few clouds at 200 feet AGL
Weather: no significant weather observed at this time

METAR text: EHAM 190725Z 13003KT 9999 FEW003 03/01 Q1027 NOSIG
Conditions at: EHAM (AMSTERDAM/SCHIPH, NL) observed 0725 UTC 19 March 2019
Temperature: 3.0°C (37°F)
Dewpoint: 1.0°C (34°F) [RH = 87%]
Pressure (altimeter): 30.32 inches Hg (1027.0 mb)
Winds: from the SE (130 degrees) at 3 MPH (3 knots; 1.5 m/s)
Visibility: 6 or more miles (10+ km)
Ceiling: at least 12,000 feet AGL
Clouds: few clouds at 300 feet AGL
Weather: no significant weather observed at this time

METAR text: EHAM 190655Z 16003KT 140V240 9999 FEW014 01/00 Q1026 NOSIG
Conditions at: EHAM (AMSTERDAM/SCHIPH, NL) observed 0655 UTC 19 March 2019
Temperature: 1.0°C (34°F)
Dewpoint: 0.0°C (32°F) [RH = 93%]
Pressure (altimeter): 30.30 inches Hg (1026.0 mb)
Winds: from the SSE (160 degrees) at 3 MPH (3 knots; 1.5 m/s)
Visibility: 6 or more miles (10+ km)
Ceiling: at least 12,000 feet AGL
Clouds: few clouds at 1400 feet AGL
Weather: no significant weather observed at this time

METAR text: EHAM 190625Z 17004KT CAVOK 01/M00 Q1026 NOSIG
Conditions at: EHAM (AMSTERDAM/SCHIPH, NL) observed 0625 UTC 19 March 2019
Temperature: 1.0°C (34°F)
Dewpoint: 0.0°C (32°F) [RH = 93%]
Pressure (altimeter): 30.30 inches Hg (1026.0 mb)
Winds: from the S (170 degrees) at 5 MPH (4 knots; 2.1 m/s)
Visibility: 6 or more miles (10+ km)
Ceiling: ceiling and visibility are OK
Clouds: unknown
Weather: no significant weather observed at this time

METAR text: EHAM 190555Z 12003KT CAVOK M00/M01 Q1026 NOSIG
Conditions at: EHAM (AMSTERDAM/SCHIPH, NL) observed 0555 UTC 19 March 2019
Temperature: 0.0°C (32°F)
Dewpoint: -1.0°C (30°F) [RH = 93%]
Pressure (altimeter): 30.30 inches Hg (1026.0 mb)
Winds: from the ESE (120 degrees) at 3 MPH (3 knots; 1.5 m/s)
Visibility: 6 or more miles (10+ km)
Ceiling: ceiling and visibility are OK
Clouds: unknown
Weather: no significant weather observed at this time

METAR text: EHAM 190525Z 09003KT CAVOK M01/M02 Q1026 NOSIG
Conditions at: EHAM (AMSTERDAM/SCHIPH, NL) observed 0525 UTC 19 March 2019
Temperature: -1.0°C (30°F)
Dewpoint: -2.0°C (28°F) [RH = 93%]
Pressure (altimeter): 30.30 inches Hg (1026.0 mb)
Winds: from the E (90 degrees) at 3 MPH (3 knots; 1.5 m/s)
Visibility: 6 or more miles (10+ km)
Ceiling: ceiling and visibility are OK
Clouds: unknown
Weather: no significant weather observed at this time

METAR text: EHAM 190455Z 12003KT CAVOK M01/M01 Q1025 NOSIG
Conditions at: EHAM (AMSTERDAM/SCHIPH, NL) observed 0455 UTC 19 March 2019
Temperature: -1.0°C (30°F)
Dewpoint: -1.0°C (30°F) [RH = 100%]
Pressure (altimeter): 30.27 inches Hg (1025.0 mb)
Winds: from the ESE (120 degrees) at 3 MPH (3 knots; 1.5 m/s)
Visibility: 6 or more miles (10+ km)
Ceiling: ceiling and visibility are OK
Clouds: unknown
Weather: no significant weather observed at this time

METAR text: EHAM 190425Z VRB01KT CAVOK M00/M01 Q1025 NOSIG
Conditions at: EHAM (AMSTERDAM/SCHIPH, NL) observed 0425 UTC 19 March 2019
Temperature: 0.0°C (32°F)
Dewpoint: -1.0°C (30°F) [RH = 93%]
Pressure (altimeter): 30.27 inches Hg (1025.0 mb)
Winds: variable direction winds at 1 MPH (1 knots; 0.5 m/s)
Visibility: 6 or more miles (10+ km)
Ceiling: ceiling and visibility are OK
Clouds: unknown
Weather: no significant weather observed at this time

METAR text: EHAM 190355Z 00000KT CAVOK M00/M01 Q1025 NOSIG
Conditions at: EHAM (AMSTERDAM/SCHIPH, NL) observed 0355 UTC 19 March 2019
Temperature: 0.0°C (32°F)
Dewpoint: -1.0°C (30°F) [RH = 93%]
Pressure (altimeter): 30.27 inches Hg (1025.0 mb)
Winds: calm
Visibility: 6 or more miles (10+ km)
Ceiling: ceiling and visibility are OK
Clouds: unknown
Weather: no significant weather observed at this time

METAR text: EHAM 190325Z 16003KT CAVOK M01/M01 Q1025 NOSIG
Conditions at: EHAM (AMSTERDAM/SCHIPH, NL) observed 0325 UTC 19 March 2019
Temperature: -1.0°C (30°F)
Dewpoint: -1.0°C (30°F) [RH = 100%]
Pressure (altimeter): 30.27 inches Hg (1025.0 mb)
Winds: from the SSE (160 degrees) at 3 MPH (3 knots; 1.5 m/s)
Visibility: 6 or more miles (10+ km)
Ceiling: ceiling and visibility are OK
Clouds: unknown
Weather: no significant weather observed at this time

METAR text: EHAM 190255Z 15003KT CAVOK M01/M02 Q1025 NOSIG
Conditions at: EHAM (AMSTERDAM/SCHIPH, NL) observed 0255 UTC 19 March 2019
Temperature: -1.0°C (30°F)
Dewpoint: -2.0°C (28°F) [RH = 93%]
Pressure (altimeter): 30.27 inches Hg (1025.0 mb)
Winds: from the SSE (150 degrees) at 3 MPH (3 knots; 1.5 m/s)
Visibility: 6 or more miles (10+ km)
Ceiling: ceiling and visibility are OK
Clouds: unknown
Weather: no significant weather observed at this time

METAR text: EHAM 190225Z 16002KT CAVOK M01/M01 Q1025 NOSIG
Conditions at: EHAM (AMSTERDAM/SCHIPH, NL) observed 0225 UTC 19 March 2019
Temperature: -1.0°C (30°F)
Dewpoint: -1.0°C (30°F) [RH = 100%]
Pressure (altimeter): 30.27 inches Hg (1025.0 mb)
Winds: from the SSE (160 degrees) at 2 MPH (2 knots; 1.0 m/s)
Visibility: 6 or more miles (10+ km)
Ceiling: ceiling and visibility are OK
Clouds: unknown
Weather: no significant weather observed at this time

METAR text: EHAM 190155Z 13002KT CAVOK M01/M02 Q1025 NOSIG
Conditions at: EHAM (AMSTERDAM/SCHIPH, NL) observed 0155 UTC 19 March 2019
Temperature: -1.0°C (30°F)
Dewpoint: -2.0°C (28°F) [RH = 93%]
Pressure (altimeter): 30.27 inches Hg (1025.0 mb)
Winds: from the SE (130 degrees) at 2 MPH (2 knots; 1.0 m/s)
Visibility: 6 or more miles (10+ km)
Ceiling: ceiling and visibility are OK
Clouds: unknown
Weather: no significant weather observed at this time

METAR text: EHAM 190125Z 19002KT CAVOK M01/M01 Q1025 NOSIG
Conditions at: EHAM (AMSTERDAM/SCHIPH, NL) observed 0125 UTC 19 March 2019
Temperature: -1.0°C (30°F)
Dewpoint: -1.0°C (30°F) [RH = 100%]
Pressure (altimeter): 30.27 inches Hg (1025.0 mb)
Winds: from the S (190 degrees) at 2 MPH (2 knots; 1.0 m/s)
Visibility: 6 or more miles (10+ km)
Ceiling: ceiling and visibility are OK
Clouds: unknown
Weather: no significant weather observed at this time

METAR text: EHAM 190055Z 20003KT CAVOK M01/M02 Q1024 NOSIG
Conditions at: EHAM (AMSTERDAM/SCHIPH, NL) observed 0055 UTC 19 March 2019
Temperature: -1.0°C (30°F)
Dewpoint: -2.0°C (28°F) [RH = 93%]
Pressure (altimeter): 30.24 inches Hg (1024.0 mb)
Winds: from the SSW (200 degrees) at 3 MPH (3 knots; 1.5 m/s)
Visibility: 6 or more miles (10+ km)
Ceiling: ceiling and visibility are OK
Clouds: unknown
Weather: no significant weather observed at this time

METAR text: EHAM 190025Z 14002KT CAVOK 00/M00 Q1024 NOSIG
Conditions at: EHAM (AMSTERDAM/SCHIPH, NL) observed 0025 UTC 19 March 2019
Temperature: 0.0°C (32°F)
Dewpoint: 0.0°C (32°F) [RH = 100%]
Pressure (altimeter): 30.24 inches Hg (1024.0 mb)
Winds: from the SE (140 degrees) at 2 MPH (2 knots; 1.0 m/s)
Visibility: 6 or more miles (10+ km)
Ceiling: ceiling and visibility are OK
Clouds: unknown
Weather: no significant weather observed at this time

METAR text: EHAM 182355Z VRB01KT CAVOK M00/M02 Q1024 NOSIG
Conditions at: EHAM (AMSTERDAM/SCHIPH, NL) observed 2355 UTC 18 March 2019
Temperature: 0.0°C (32°F)
Dewpoint: -2.0°C (28°F) [RH = 86%]
Pressure (altimeter): 30.24 inches Hg (1024.0 mb)
Winds: variable direction winds at 1 MPH (1 knots; 0.5 m/s)
Visibility: 6 or more miles (10+ km)
Ceiling: ceiling and visibility are OK
Clouds: unknown
Weather: no significant weather observed at this time

METAR text: EHAM 182325Z VRB02KT CAVOK 01/M00 Q1024 NOSIG
Conditions at: EHAM (AMSTERDAM/SCHIPH, NL) observed 2325 UTC 18 March 2019
Temperature: 1.0°C (34°F)
Dewpoint: 0.0°C (32°F) [RH = 93%]
Pressure (altimeter): 30.24 inches Hg (1024.0 mb)
Winds: variable direction winds at 2 MPH (2 knots; 1.0 m/s)
Visibility: 6 or more miles (10+ km)
Ceiling: ceiling and visibility are OK
Clouds: unknown
Weather: no significant weather observed at this time

METAR text: EHAM 182255Z 17002KT CAVOK 01/M00 Q1024 NOSIG
Conditions at: EHAM (AMSTERDAM/SCHIPH, NL) observed 2255 UTC 18 March 2019
Temperature: 1.0°C (34°F)
Dewpoint: 0.0°C (32°F) [RH = 93%]
Pressure (altimeter): 30.24 inches Hg (1024.0 mb)
Winds: from the S (170 degrees) at 2 MPH (2 knots; 1.0 m/s)
Visibility: 6 or more miles (10+ km)
Ceiling: ceiling and visibility are OK
Clouds: unknown
Weather: no significant weather observed at this time

METAR text: EHAM 182225Z VRB01KT CAVOK 02/00 Q1024 NOSIG
Conditions at: EHAM (AMSTERDAM/SCHIPH, NL) observed 2225 UTC 18 March 2019
Temperature: 2.0°C (36°F)
Dewpoint: 0.0°C (32°F) [RH = 87%]
Pressure (altimeter): 30.24 inches Hg (1024.0 mb)
Winds: variable direction winds at 1 MPH (1 knots; 0.5 m/s)
Visibility: 6 or more miles (10+ km)
Ceiling: ceiling and visibility are OK
Clouds: unknown
Weather: no significant weather observed at this time

METAR text: EHAM 182155Z 27003KT CAVOK 03/01 Q1024 NOSIG
Conditions at: EHAM (AMSTERDAM/SCHIPH, NL) observed 2155 UTC 18 March 2019
Temperature: 3.0°C (37°F)
Dewpoint: 1.0°C (34°F) [RH = 87%]
Pressure (altimeter): 30.24 inches Hg (1024.0 mb)
Winds: from the W (270 degrees) at 3 MPH (3 knots; 1.5 m/s)
Visibility: 6 or more miles (10+ km)
Ceiling: ceiling and visibility are OK
Clouds: unknown
Weather: no significant weather observed at this time

METAR text: EHAM 182125Z 29002KT CAVOK 03/01 Q1023 NOSIG
Conditions at: EHAM (AMSTERDAM/SCHIPH, NL) observed 2125 UTC 18 March 2019
Temperature: 3.0°C (37°F)
Dewpoint: 1.0°C (34°F) [RH = 87%]
Pressure (altimeter): 30.21 inches Hg (1023.0 mb)
Winds: from the WNW (290 degrees) at 2 MPH (2 knots; 1.0 m/s)
Visibility: 6 or more miles (10+ km)
Ceiling: ceiling and visibility are OK
Clouds: unknown
Weather: no significant weather observed at this time

METAR text: EHAM 182055Z VRB02KT CAVOK 03/01 Q1023 NOSIG
Conditions at: EHAM (AMSTERDAM/SCHIPH, NL) observed 2055 UTC 18 March 2019
Temperature: 3.0°C (37°F)
Dewpoint: 1.0°C (34°F) [RH = 87%]
Pressure (altimeter): 30.21 inches Hg (1023.0 mb)
Winds: variable direction winds at 2 MPH (2 knots; 1.0 m/s)
Visibility: 6 or more miles (10+ km)
Ceiling: ceiling and visibility are OK
Clouds: unknown
Weather: no significant weather observed at this time

METAR text: EHAM 182025Z 29005KT CAVOK 03/00 Q1023 NOSIG
Conditions at: EHAM (AMSTERDAM/SCHIPH, NL) observed 2025 UTC 18 March 2019
Temperature: 3.0°C (37°F)
Dewpoint: 0.0°C (32°F) [RH = 81%]
Pressure (altimeter): 30.21 inches Hg (1023.0 mb)
Winds: from the WNW (290 degrees) at 6 MPH (5 knots; 2.6 m/s)
Visibility: 6 or more miles (10+ km)
Ceiling: ceiling and visibility are OK
Clouds: unknown
Weather: no significant weather observed at this time

METAR text: EHAM 181955Z 29005KT CAVOK 03/00 Q1023 NOSIG
Conditions at: EHAM (AMSTERDAM/SCHIPH, NL) observed 1955 UTC 18 March 2019
Temperature: 3.0°C (37°F)
Dewpoint: 0.0°C (32°F) [RH = 81%]
Pressure (altimeter): 30.21 inches Hg (1023.0 mb)
Winds: from the WNW (290 degrees) at 6 MPH (5 knots; 2.6 m/s)
Visibility: 6 or more miles (10+ km)
Ceiling: ceiling and visibility are OK
Clouds: unknown
Weather: no significant weather observed at this time

Forecast for: EHAM (AMSTERDAM/SCHIPH, NL)
Text: TAF EHAM 200509Z 2006/2112 21008KT 6000 BKN006
Forecast period: 0600 to 0900 UTC 20 March 2019
Forecast type: FROM: standard forecast or significant change
Winds: from the SSW (210 degrees) at 9 MPH (8 knots; 4.1 m/s)
Visibility: 4 miles (6 km)
Ceiling: 600 feet AGL
Clouds: broken clouds at 600 feet AGL
Weather: no significant weather forecast for this period
Text: TEMPO 2006/2010 4000 BR BKN004
Forecast period: 0600 to 1000 UTC 20 March 2019
Forecast type: TEMPORARY: The following changes expected for less than half the time period
Visibility: 2.49 miles (4.01 km)
Ceiling: 400 feet AGL
Clouds: broken clouds at 400 feet AGL
Weather: BR  (mist)
Text: PROB30
Forecast period: 0700 to 0900 UTC 20 March 2019
Forecast type: TEMPORARY: The following changes expected for less than half the time period
Visibility: 1.24 miles (2.00 km)
Ceiling: 300 feet AGL
Clouds: few clouds at 200 feet AGL
broken clouds at 300 feet AGL
Weather: -DZ  (light drizzle)
Text: TEMPO 2007/2009 2000 -DZ FEW002 BKN003
Forecast period: 0900 to 1800 UTC 20 March 2019
Forecast type: BECOMING: Conditions expected to become as follows by 1200 UTC 20 March 2019
Winds: from the WSW (250 degrees) at 13 MPH (11 knots; 5.7 m/s)
Visibility: 6 or more miles 10+ km)
Ceiling: 1500 feet AGL
Clouds: broken clouds at 1500 feet AGL
Weather: NSW  (no significant weather)
Text: BECMG 2009/2012 25011KT 9999 NSW BKN015
Forecast period: 1300 to 2100 UTC 20 March 2019
Forecast type: TEMPORARY: The following changes expected for less than half the time period
Visibility: missing
Ceiling: at least 12,000 feet AGL
Clouds: scattered clouds at 1500 feet AGL
Weather: no significant weather forecast for this period
Text: TEMPO 2013/2021 SCT015
Forecast period: 1800 to 2100 UTC 20 March 2019
Forecast type: BECOMING: Conditions expected to become as follows by 2100 UTC 20 March 2019
Winds: from the SW (220 degrees) at 7 MPH (6 knots; 3.1 m/s)
Visibility: 4 miles (7 km)
Ceiling: 1500 feet AGL
Clouds: broken clouds at 1500 feet AGL
Weather: MIFG  (shallow fog)
Text: BECMG 2018/2021 22006KT 7000 MIFG
Forecast period: 2100 UTC 20 March 2019 to 0900 UTC 21 March 2019
Forecast type: BECOMING: Conditions expected to become as follows by 0000 UTC 21 March 2019
Winds: from the SW (220 degrees) at 7 MPH (6 knots; 3.1 m/s)
Visibility: 2.49 miles (4.01 km)
Ceiling: 600 feet AGL
Clouds: broken clouds at 600 feet AGL
Weather: BR  (mist)
Text: BECMG 2021/2024 4000 BR BKN006
Forecast period: 0000 to 0800 UTC 21 March 2019
Forecast type: PROBABLE: 30 percent likelihood of the following during this time
Visibility: 1.24 miles (2.00 km)
Ceiling: 400 feet AGL
Clouds: broken clouds at 400 feet AGL
Weather: no significant weather forecast for this period
Text: PROB30 2100/2108 2000 BKN004
Forecast period: 0900 to 1200 UTC 21 March 2019
Forecast type: BECOMING: Conditions expected to become as follows by 1200 UTC 21 March 2019
Winds: from the WSW (250 degrees) at 12 MPH (10 knots; 5.1 m/s)
Visibility: 6 or more miles 10+ km)
Ceiling: at least 12,000 feet AGL
Clouds: scattered clouds at 2000 feet AGL
Weather: NSW  (no significant weather)